KBTVKRUT

Guest
Details From KBTV - Burlington Intl
To KRUT - Rutland State
Flight Number -
Tags Routegen
Created
Modified
Stats Distance 58 nm / 108 km
Max Altitude 0 ft / 0 m
Waypoints 2
Social Downloads 2
Likes 0
Share VATSIM

Download

Looking for another format? Having issues loading an existing format? Contact us
Advertisement - Login to hide

Notes

None

Route

KBTV KRUT

ID Type Via Altitude Latitude Longitude Leg Dist Tot Dist Heading (true) Name
O KBTV APT - 0 ft / 0 m 44.48068˚ -73.16588˚ - 0 nm - -
O KRUT APT - 0 ft / 0 m 43.52488˚ -72.94948˚ 58 nm 58 nm 171° / 171° -

Altitude Profile

Advertisement - Login to hide

KBTV

Details ICAO KBTV (BTV)
Name BURLINGTON INTL
Region United States
Timezone America/New_York (UTC-5.0)
Stats Elevation 334 ft / 102 m (AMSL)
Location 44.471252° -73.153113°
Runways 2
Magnetic Variation 14.308° W

METAR

KBTV 170421Z 04004KT 10SM BKN023 M10/M15 A3021 RMK AO2 T11001150

Decode

TAF

KBTV 162331Z 1700/1724 35005KT P6SM BKN040 FM170300 33005KT P6SM SCT050

Decode

Departure Runways

ID Width Length Bearing (true) Bearing (mag) Surface Threshold Offset Overrun Length
01 75 ft / 23 m 4,115 ft / 1,254 m 351.45° 5.76° Asphalt 226 ft / 69 m 0 ft / 0 m
15 150 ft / 46 m 8,311 ft / 2,533 m 130.91° 145.22° Asphalt 0 ft / 0 m 1,004 ft / 306 m
19 75 ft / 23 m 4,115 ft / 1,254 m 171.45° 185.76° Asphalt 505 ft / 154 m 0 ft / 0 m
33 150 ft / 46 m 8,311 ft / 2,533 m 310.93° 325.24° Asphalt 502 ft / 153 m 522 ft / 159 m

KRUT

Details ICAO KRUT (RUT)
Name RUTLAND STATE
Region United States
Timezone America/New_York (UTC-5.0)
Stats Elevation 787 ft / 240 m (AMSL)
Location 43.529381° -72.949582°
Runways 2
Magnetic Variation 14.135° W

METAR

KRUT 170356Z AUTO 14004KT 10SM CLR M14/M17 A3015 RMK AO2 SLP234 T11441167 FZRANO $

Decode

TAF

KRUT 162331Z 1700/1724 31006KT P6SM FEW070 FM170500 13004KT P6SM SKC FM171700 34004KT P6SM FEW050

Decode

Destination Runways

ID Width Length Bearing (true) Bearing (mag) Surface Threshold Offset Overrun Length
01 100 ft / 30 m 5,005 ft / 1,526 m 358.50° 12.63° Asphalt 0 ft / 0 m 0 ft / 0 m
13 75 ft / 23 m 3,164 ft / 965 m 118.72° 132.85° Asphalt 0 ft / 0 m 0 ft / 0 m
19 100 ft / 30 m 5,005 ft / 1,526 m 178.50° 192.63° Asphalt 0 ft / 0 m 0 ft / 0 m
31 75 ft / 23 m 3,164 ft / 965 m 298.72° 312.85° Asphalt 0 ft / 0 m 0 ft / 0 m

Approach Navaids

Runway Type Ident Frequency Range Bearing (true) Bearing (mag) Slope Elevation
19 Localiser IRUT 111.70 MHz 18 nm / 33 km 170.19° 184.33° - 787 ft / 240 m (AMSL)
19 DME IRUT 111.70 MHz 18 nm / 33 km - - - 787 ft / 240 m (AMSL)